Terminal Aerodrome Forecast
Issued by NWS

Home | Current Version | Previous Version | Graphics & Text | Print | Product List | Glossary On
Versions: 1 2 3 4 5 6 7 8 9 10 11 12 13 14
000
FTUS43 KGRB 120900 AAA
TAFAUW
TAF AMD
KAUW 120925Z 1209/1306 18006KT P6SM SCT025 BKN035
      TEMPO 1210/1213 4SM BR SCT006 BKN012
     FM121500 25007KT P6SM VCSH BKN035 BKN070
      TEMPO 1221/1301 4SM TSRA OVC020CB
     FM130100 28005KT P6SM BKN070=

USA.gov is the U.S. government's official web portal to all federal, state and local government web resources and services.